Time;durP1;ratioP1;P1;durP2;ratioP2;P2;SDS_P1;SDS_P2;PMS_P1;PMS_P2;Temp;Humidity;BMP_temperature;BMP_pressure;BME280_temperature;BME280_humidity;BME280_pressure;Samples;Min_cycle;Max_cycle;Signal;HPM_P1;HPM_P2
2022/07/05 00:00:08;;;;;;;2.90;2.37;;;18.70;42.00;;;;;;4854881;29;20467;-82
2022/07/05 00:02:35;;;;;;;2.23;1.90;;;18.70;42.00;;;;;;4865119;29;20433;-81
2022/07/05 00:05:02;;;;;;;2.30;2.20;;;18.70;41.50;;;;;;4853187;29;20522;-82
2022/07/05 00:07:29;;;;;;;1.87;1.77;;;18.70;42.10;;;;;;4852848;29;20467;-82
2022/07/05 00:09:58;;;;;;;6.13;2.20;;;18.70;42.30;;;;;;4851881;29;20466;-80
2022/07/05 00:12:27;;;;;;;4.47;2.33;;;18.60;42.60;;;;;;4866003;29;20534;-82
2022/07/05 00:14:55;;;;;;;2.73;2.37;;;18.50;43.20;;;;;;4852671;29;20473;-81
2022/07/05 00:17:22;;;;;;;2.80;2.07;;;18.50;43.00;;;;;;4851274;29;20555;-81
2022/07/05 00:19:49;;;;;;;2.47;2.27;;;18.50;43.10;;;;;;4855569;29;20470;-82
2022/07/05 00:22:16;;;;;;;3.93;2.40;;;18.50;43.60;;;;;;4857909;29;20463;-81
2022/07/05 00:24:42;;;;;;;2.57;2.40;;;18.50;44.40;;;;;;4853176;29;20448;-82
2022/07/05 00:27:11;;;;;;;2.53;2.37;;;18.40;44.30;;;;;;4858395;29;20463;-83
2022/07/05 00:29:38;;;;;;;3.73;1.90;;;18.40;44.30;;;;;;4862497;29;20493;-82
2022/07/05 00:32:05;;;;;;;5.07;2.47;;;18.40;44.70;;;;;;4863107;29;20454;-82
2022/07/05 00:34:32;;;;;;;2.73;2.30;;;18.40;44.70;;;;;;4863131;29;20495;-83
2022/07/05 00:36:59;;;;;;;6.10;2.87;;;18.40;45.10;;;;;;4863750;29;20501;-82
2022/07/05 00:39:27;;;;;;;3.20;2.23;;;18.30;45.30;;;;;;4865620;29;20504;-84
2022/07/05 00:41:53;;;;;;;3.23;2.53;;;18.30;46.80;;;;;;4864699;29;20471;-81
2022/07/05 00:44:31;;;;;;;4.43;2.43;;;18.20;47.90;;;;;;4849169;29;20472;-81
2022/07/05 00:46:58;;;;;;;3.00;2.13;;;18.10;47.10;;;;;;4848921;29;20466;-83
2022/07/05 00:49:25;;;;;;;2.77;2.57;;;18.20;47.20;;;;;;4848658;29;20968;-81
2022/07/05 00:52:04;;;;;;;2.50;2.30;;;18.20;47.20;;;;;;4854482;29;20518;-82
2022/07/05 00:54:34;;;;;;;3.40;2.53;;;18.20;47.20;;;;;;4850255;29;20550;-83
2022/07/05 00:57:01;;;;;;;2.83;2.63;;;18.00;47.00;;;;;;4860349;29;20481;-82
2022/07/05 00:59:30;;;;;;;3.43;2.30;;;18.00;47.90;;;;;;4851859;29;20825;-82
2022/07/05 01:01:57;;;;;;;2.40;2.10;;;18.00;48.40;;;;;;4849789;29;21002;-82
2022/07/05 01:04:25;;;;;;;2.47;2.10;;;18.10;48.30;;;;;;4852519;29;20477;-81
2022/07/05 01:06:53;;;;;;;2.40;2.00;;;18.00;48.10;;;;;;4872637;29;20432;-82
2022/07/05 01:09:22;;;;;;;2.70;2.40;;;18.00;48.00;;;;;;4871743;29;20436;-82
2022/07/05 01:11:50;;;;;;;2.87;2.63;;;18.00;48.70;;;;;;4869054;29;20445;-83
2022/07/05 01:14:19;;;;;;;2.80;2.20;;;17.90;48.50;;;;;;4870338;29;20460;-83
2022/07/05 01:16:48;;;;;;;2.20;2.00;;;17.80;48.60;;;;;;4877514;29;20485;-83
2022/07/05 01:19:15;;;;;;;2.67;2.37;;;17.80;48.50;;;;;;4868709;29;20534;-83
2022/07/05 01:21:43;;;;;;;2.73;2.23;;;17.80;48.50;;;;;;4870206;29;20513;-80
2022/07/05 01:24:13;;;;;;;2.80;2.03;;;17.80;49.20;;;;;;4870185;29;20490;-81
2022/07/05 01:26:41;;;;;;;5.10;2.20;;;17.80;49.10;;;;;;4871021;29;20421;-82
2022/07/05 01:29:10;;;;;;;2.77;2.53;;;17.80;49.50;;;;;;4871181;29;20450;-82
2022/07/05 01:31:38;;;;;;;2.60;2.40;;;17.80;50.00;;;;;;4870947;29;20461;-82
2022/07/05 01:34:06;;;;;;;5.43;2.80;;;17.80;51.10;;;;;;4870996;29;20460;-82
2022/07/05 01:36:33;;;;;;;5.40;2.23;;;17.80;51.70;;;;;;4870565;29;20502;-81
2022/07/05 01:39:01;;;;;;;2.70;2.50;;;17.80;51.70;;;;;;4871709;29;20475;-80
2022/07/05 01:41:30;;;;;;;2.27;2.13;;;17.70;51.90;;;;;;4872630;29;20563;-82
2022/07/05 01:43:57;;;;;;;2.73;2.43;;;17.60;52.30;;;;;;4874680;29;20481;-82
2022/07/05 01:46:27;;;;;;;3.13;2.30;;;17.60;52.20;;;;;;4872881;29;20471;-84
2022/07/05 01:48:58;;;;;;;4.43;2.43;;;17.50;52.20;;;;;;4877787;29;20446;-80
2022/07/05 01:51:30;;;;;;;3.10;2.80;;;17.50;52.60;;;;;;4886502;29;20451;-80
2022/07/05 01:53:57;;;;;;;3.23;2.27;;;17.60;52.10;;;;;;4884944;29;20467;-81
2022/07/05 01:56:24;;;;;;;2.50;2.20;;;17.60;52.70;;;;;;4884142;29;20460;-81
2022/07/05 01:58:54;;;;;;;6.30;2.40;;;17.50;52.80;;;;;;4883758;29;20469;-80
2022/07/05 02:01:34;;;;;;;2.50;2.30;;;17.40;53.30;;;;;;4883670;29;20517;-81
2022/07/05 02:04:01;;;;;;;2.83;2.60;;;17.40;54.10;;;;;;4889965;23;20518;-75
2022/07/05 02:06:28;;;;;;;4.93;2.40;;;17.40;54.30;;;;;;4863449;29;20531;-74
2022/07/05 02:08:54;;;;;;;3.50;2.57;;;17.40;54.50;;;;;;4864371;29;20464;-76
2022/07/05 02:11:21;;;;;;;2.73;2.50;;;17.30;56.10;;;;;;4864561;29;20443;-75
2022/07/05 02:13:48;;;;;;;3.70;2.70;;;17.20;56.00;;;;;;4865305;29;20453;-74
2022/07/05 02:16:16;;;;;;;3.63;2.73;;;17.20;56.00;;;;;;4865019;29;20443;-77
2022/07/05 02:18:43;;;;;;;4.23;2.40;;;17.10;55.90;;;;;;4864865;29;20482;-76
2022/07/05 02:21:10;;;;;;;2.60;2.40;;;17.10;55.90;;;;;;4864989;29;20464;-75
2022/07/05 02:23:37;;;;;;;2.70;2.50;;;17.10;55.90;;;;;;4865099;29;20462;-74
2022/07/05 02:26:04;;;;;;;2.60;2.40;;;16.90;57.50;;;;;;4863749;29;20473;-75
2022/07/05 02:28:31;;;;;;;2.93;2.50;;;16.80;58.20;;;;;;4863523;29;20465;-74
2022/07/05 02:30:57;;;;;;;3.10;2.50;;;16.80;58.40;;;;;;4863765;29;20545;-75
2022/07/05 02:33:26;;;;;;;3.20;2.50;;;16.80;58.90;;;;;;4862537;29;20460;-75
2022/07/05 02:35:52;;;;;;;6.23;2.60;;;16.80;59.80;;;;;;4863473;29;20553;-75
2022/07/05 02:38:19;;;;;;;3.03;2.40;;;16.80;59.50;;;;;;4862990;29;20485;-74
2022/07/05 02:40:46;;;;;;;4.37;2.50;;;16.80;60.10;;;;;;4863076;29;20436;-74
2022/07/05 02:43:13;;;;;;;3.03;2.67;;;16.80;59.50;;;;;;4862701;29;20467;-75
2022/07/05 02:45:40;;;;;;;3.17;2.63;;;16.80;59.10;;;;;;4863025;29;20551;-74
2022/07/05 02:48:06;;;;;;;3.10;2.70;;;16.80;59.70;;;;;;4863471;29;20440;-74
2022/07/05 02:50:35;;;;;;;3.63;3.00;;;16.80;60.00;;;;;;4867858;29;20428;-77
2022/07/05 02:53:01;;;;;;;3.60;2.67;;;16.80;60.50;;;;;;4869361;29;20523;-75
2022/07/05 02:55:28;;;;;;;6.63;2.70;;;16.80;59.60;;;;;;4868737;29;20561;-74
2022/07/05 02:57:56;;;;;;;3.73;2.77;;;16.80;59.50;;;;;;4869608;29;20470;-74
2022/07/05 03:00:23;;;;;;;4.37;2.63;;;16.80;58.80;;;;;;4871152;29;20933;-74
2022/07/05 03:02:50;;;;;;;2.47;2.27;;;16.70;59.00;;;;;;4871452;29;20512;-74
2022/07/05 03:05:16;;;;;;;3.50;2.70;;;16.70;59.80;;;;;;4865078;29;20460;-74
2022/07/05 03:07:45;;;;;;;3.30;2.50;;;16.70;60.20;;;;;;4865624;29;20464;-74
2022/07/05 03:10:11;;;;;;;3.60;2.77;;;16.70;60.20;;;;;;4871260;29;20437;-72
2022/07/05 03:12:38;;;;;;;2.70;2.50;;;16.60;60.70;;;;;;4885750;29;20443;-74
2022/07/05 03:15:06;;;;;;;4.00;2.47;;;16.60;61.20;;;;;;4886010;29;20459;-74
2022/07/05 03:17:33;;;;;;;3.00;2.70;;;16.60;61.10;;;;;;4885801;29;20497;-80
2022/07/05 03:20:00;;;;;;;4.80;2.77;;;16.50;62.00;;;;;;4886244;29;20442;-79
2022/07/05 03:22:27;;;;;;;3.00;2.70;;;16.50;60.90;;;;;;4885817;29;20489;-78
2022/07/05 03:24:55;;;;;;;2.10;2.00;;;16.40;60.80;;;;;;4881969;29;20488;-75
2022/07/05 03:27:21;;;;;;;4.33;2.90;;;16.40;60.90;;;;;;4867271;29;20469;-75
2022/07/05 03:29:48;;;;;;;3.17;2.87;;;16.40;61.10;;;;;;4862650;29;20469;-75
2022/07/05 03:32:15;;;;;;;3.50;2.57;;;16.40;62.20;;;;;;4863018;29;20799;-74
2022/07/05 03:34:42;;;;;;;4.37;2.90;;;16.40;62.80;;;;;;4863515;29;20456;-74
2022/07/05 03:37:09;;;;;;;2.90;2.63;;;16.40;64.40;;;;;;4862496;29;20750;-77
2022/07/05 03:39:35;;;;;;;4.10;3.50;;;16.30;63.70;;;;;;4861668;29;20473;-75
2022/07/05 03:42:04;;;;;;;3.40;3.10;;;16.40;64.50;;;;;;4862600;29;20841;-74
2022/07/05 03:44:32;;;;;;;3.00;2.80;;;16.40;64.10;;;;;;4863288;29;20504;-76
2022/07/05 03:46:59;;;;;;;5.00;3.03;;;16.40;64.50;;;;;;4870700;29;20506;-76
2022/07/05 03:49:27;;;;;;;3.53;3.13;;;16.50;64.10;;;;;;4869030;29;20475;-75
2022/07/05 03:51:54;;;;;;;3.23;2.83;;;16.60;63.80;;;;;;4869926;29;20458;-80
2022/07/05 03:54:21;;;;;;;3.70;2.77;;;16.60;64.70;;;;;;4863513;29;21008;-76
2022/07/05 03:56:47;;;;;;;2.70;2.50;;;16.70;64.80;;;;;;4866860;29;20462;-76
2022/07/05 03:59:15;;;;;;;5.30;2.90;;;16.90;63.00;;;;;;4863201;29;20839;-78
2022/07/05 04:01:42;;;;;;;4.70;2.90;;;16.90;62.30;;;;;;4861547;29;20927;-77
2022/07/05 04:04:09;;;;;;;3.73;2.73;;;17.00;61.50;;;;;;4861850;29;20498;-74
2022/07/05 04:06:36;;;;;;;8.70;3.33;;;17.10;61.10;;;;;;4861502;29;20466;-74
2022/07/05 04:09:03;;;;;;;3.73;3.00;;;17.10;61.10;;;;;;4861420;29;20461;-73
2022/07/05 04:11:30;;;;;;;3.43;3.13;;;17.00;61.30;;;;;;4861243;29;20485;-76
2022/07/05 04:13:57;;;;;;;4.50;3.50;;;17.00;61.60;;;;;;4860777;29;20938;-74
2022/07/05 04:16:26;;;;;;;4.93;2.97;;;16.90;61.90;;;;;;4860799;29;20946;-74
2022/07/05 04:18:52;;;;;;;3.10;2.80;;;16.90;61.70;;;;;;4860715;29;21042;-76
2022/07/05 04:21:19;;;;;;;4.10;2.90;;;16.80;61.90;;;;;;4861174;29;20446;-74
2022/07/05 04:23:46;;;;;;;3.87;3.27;;;16.80;62.20;;;;;;4869211;29;20485;-77
2022/07/05 04:26:13;;;;;;;7.70;3.00;;;16.70;62.80;;;;;;4869564;29;20461;-77
2022/07/05 04:28:40;;;;;;;3.17;2.87;;;16.80;62.70;;;;;;4862806;29;20441;-77
2022/07/05 04:31:06;;;;;;;3.50;2.60;;;16.80;61.80;;;;;;4863295;29;20565;-77
2022/07/05 04:33:35;;;;;;;3.10;2.80;;;16.90;60.80;;;;;;4862897;29;20425;-77
2022/07/05 04:36:01;;;;;;;4.70;3.40;;;17.00;59.40;;;;;;4862671;29;20793;-78
2022/07/05 04:38:29;;;;;;;3.10;2.80;;;17.10;58.30;;;;;;4862012;29;20588;-75
2022/07/05 04:40:55;;;;;;;3.30;2.63;;;17.20;56.90;;;;;;4862502;29;20476;-76
2022/07/05 04:43:22;;;;;;;3.20;2.70;;;17.30;56.10;;;;;;4860923;29;20534;-77
2022/07/05 04:45:49;;;;;;;2.77;2.57;;;17.30;56.10;;;;;;4862699;29;20468;-76
2022/07/05 04:48:16;;;;;;;2.97;2.67;;;17.30;56.10;;;;;;4862031;29;20514;-76
2022/07/05 04:50:44;;;;;;;3.50;3.20;;;17.30;56.10;;;;;;4862080;29;20452;-76
2022/07/05 04:53:11;;;;;;;3.47;3.03;;;17.40;56.20;;;;;;4867220;29;20464;-75
2022/07/05 04:55:38;;;;;;;3.60;3.03;;;17.70;54.40;;;;;;4872282;29;20528;-76
2022/07/05 04:58:05;;;;;;;2.90;2.60;;;18.00;53.00;;;;;;4870796;29;20550;-78
2022/07/05 05:00:32;;;;;;;3.93;2.70;;;18.30;51.60;;;;;;4868113;29;20462;-78
2022/07/05 05:02:59;;;;;;;4.50;2.30;;;18.70;49.70;;;;;;4863855;29;20553;-77
2022/07/05 05:05:25;;;;;;;6.93;2.30;;;19.40;48.30;;;;;;4861751;29;20532;-76
2022/07/05 05:07:54;;;;;;;5.00;2.20;;;20.50;44.30;;;;;;4860853;29;20457;-77
2022/07/05 05:10:20;;;;;;;5.53;2.20;;;21.60;40.30;;;;;;4862509;29;20529;-77
2022/07/05 05:12:47;;;;;;;6.07;2.37;;;22.40;38.70;;;;;;4862887;29;20468;-77
2022/07/05 05:15:14;;;;;;;2.97;2.20;;;23.30;36.20;;;;;;4863564;29;20971;-76
2022/07/05 05:17:43;;;;;;;2.70;2.20;;;24.00;34.90;;;;;;4863549;29;20473;-76
2022/07/05 05:20:13;;;;;;;4.77;2.27;;;25.00;33.10;;;;;;4864851;29;20459;-77
2022/07/05 05:22:40;;;;;;;8.33;2.47;;;25.60;31.10;;;;;;4868109;29;20449;-78
2022/07/05 05:25:11;;;;;;;2.97;2.40;;;26.10;30.20;;;;;;4868032;29;20530;-77
2022/07/05 05:27:42;;;;;;;7.17;2.50;;;26.20;29.90;;;;;;4864125;29;20443;-76
2022/07/05 05:30:10;;;;;;;6.10;2.20;;;26.40;29.20;;;;;;4862054;29;20564;-75
2022/07/05 05:32:37;;;;;;;2.27;1.90;;;26.10;27.90;;;;;;4861654;29;20526;-77
2022/07/05 05:35:05;;;;;;;3.70;2.20;;;26.70;26.50;;;;;;4862115;29;20482;-76
2022/07/05 05:37:32;;;;;;;4.37;1.93;;;26.70;25.50;;;;;;4862156;29;20437;-76
2022/07/05 05:39:59;;;;;;;3.93;1.70;;;26.60;25.10;;;;;;4862731;29;20506;-76
2022/07/05 05:42:27;;;;;;;6.70;2.00;;;26.20;24.90;;;;;;4863433;29;20532;-75
2022/07/05 05:44:54;;;;;;;3.07;2.00;;;26.20;24.90;;;;;;4861491;29;20479;-77
2022/07/05 05:47:21;;;;;;;1.70;1.60;;;25.90;25.50;;;;;;4863345;29;20441;-76
2022/07/05 05:49:47;;;;;;;4.40;2.30;;;26.10;24.90;;;;;;4863345;29;20435;-75
2022/07/05 05:52:14;;;;;;;2.43;1.90;;;26.30;25.00;;;;;;4864310;29;20475;-77
2022/07/05 05:54:41;;;;;;;6.40;2.07;;;26.60;25.10;;;;;;4862932;29;20487;-76
2022/07/05 05:57:08;;;;;;;4.67;2.30;;;27.10;25.40;;;;;;4860661;29;21028;-78
2022/07/05 05:59:37;;;;;;;2.50;1.67;;;27.40;25.00;;;;;;4860318;29;20471;-76
2022/07/05 06:02:04;;;;;;;1.83;1.40;;;27.60;22.80;;;;;;4860418;29;20444;-76
2022/07/05 06:04:31;;;;;;;2.60;1.60;;;26.90;22.90;;;;;;4859955;29;20500;-77
2022/07/05 06:06:58;;;;;;;1.60;1.50;;;26.60;24.00;;;;;;4860541;29;20635;-76
2022/07/05 06:09:25;;;;;;;3.17;2.00;;;26.80;23.80;;;;;;4865117;29;20453;-76
2022/07/05 06:11:51;;;;;;;2.70;1.70;;;27.00;23.30;;;;;;4864453;29;20534;-77
2022/07/05 06:14:18;;;;;;;1.90;1.57;;;27.00;23.30;;;;;;4864763;29;20495;-77
2022/07/05 06:16:46;;;;;;;3.63;1.80;;;26.60;23.10;;;;;;4864516;29;20549;-76
2022/07/05 06:19:13;;;;;;;2.93;2.00;;;26.40;23.60;;;;;;4864266;29;21064;-77
2022/07/05 06:21:43;;;;;;;3.40;2.20;;;26.60;23.50;;;;;;4863793;29;20470;-77
2022/07/05 06:24:10;;;;;;;7.50;2.27;;;26.70;23.70;;;;;;4864228;29;20488;-77
2022/07/05 06:26:37;;;;;;;3.27;2.30;;;27.00;23.30;;;;;;4864305;29;20483;-77
2022/07/05 06:29:04;;;;;;;2.50;2.30;;;26.50;23.20;;;;;;4863660;29;20809;-77
2022/07/05 06:31:31;;;;;;;3.03;1.87;;;27.00;23.30;;;;;;4863777;29;20531;-78
2022/07/05 06:33:59;;;;;;;4.57;2.00;;;27.60;21.90;;;;;;4864121;29;20833;-77
2022/07/05 06:36:26;;;;;;;11.20;2.27;;;27.50;21.80;;;;;;4864526;29;20476;-77
2022/07/05 06:38:52;;;;;;;3.53;2.40;;;26.60;22.80;;;;;;4863908;29;21072;-77
2022/07/05 06:41:19;;;;;;;5.97;2.20;;;27.00;22.30;;;;;;4863799;29;20461;-76
2022/07/05 06:43:46;;;;;;;2.43;1.67;;;27.20;21.70;;;;;;4863814;29;20490;-77
2022/07/05 06:46:13;;;;;;;4.03;2.30;;;27.20;21.80;;;;;;4864257;29;20457;-78
2022/07/05 06:48:40;;;;;;;3.90;1.90;;;26.90;22.30;;;;;;4864871;29;20560;-77
2022/07/05 06:51:08;;;;;;;2.67;2.30;;;27.10;22.10;;;;;;4866682;29;20835;-76
2022/07/05 06:53:35;;;;;;;3.83;1.97;;;27.00;22.60;;;;;;4866294;29;20454;-78
2022/07/05 06:56:02;;;;;;;3.20;2.20;;;26.80;22.90;;;;;;4875845;29;20449;-76
2022/07/05 06:58:29;;;;;;;6.23;1.73;;;26.90;22.50;;;;;;4871771;29;20535;-77
2022/07/05 07:00:56;;;;;;;4.83;1.70;;;27.30;22.30;;;;;;4866346;29;20481;-78
2022/07/05 07:03:23;;;;;;;5.30;1.93;;;27.40;22.50;;;;;;4866169;29;20471;-78
2022/07/05 07:05:50;;;;;;;4.33;2.57;;;27.60;22.00;;;;;;4866967;29;20475;-77
2022/07/05 07:11:18;;;;;;;3.60;2.40;;;25.30;25.00;;;;;;4830664;29;20417;-77
2022/07/05 07:13:45;;;;;;;4.00;2.10;;;24.10;26.80;;;;;;4831667;29;20454;-77
2022/07/05 07:16:12;;;;;;;2.93;2.57;;;23.80;27.50;;;;;;4845244;29;20975;-76
2022/07/05 07:18:39;;;;;;;2.43;2.13;;;23.50;28.20;;;;;;4866369;29;20555;-78
2022/07/05 07:21:06;;;;;;;3.13;2.00;;;23.20;28.80;;;;;;4865689;29;20454;-77
2022/07/05 07:23:36;;;;;;;2.53;2.33;;;23.00;28.90;;;;;;4864679;29;20438;-78
2022/07/05 07:26:03;;;;;;;2.97;1.83;;;23.00;29.10;;;;;;4863587;29;20506;-76
2022/07/05 07:28:30;;;;;;;3.07;2.20;;;22.90;29.10;;;;;;4864328;29;20442;-77
2022/07/05 07:30:57;;;;;;;4.77;2.53;;;22.80;29.70;;;;;;4863963;29;20572;-76
2022/07/05 07:33:24;;;;;;;4.40;2.60;;;22.80;29.70;;;;;;4864307;29;20455;-77
2022/07/05 07:35:51;;;;;;;5.27;2.40;;;22.80;29.50;;;;;;4866768;29;20815;-76
2022/07/05 07:38:18;;;;;;;3.17;2.07;;;22.90;29.90;;;;;;4865751;29;20875;-75
2022/07/05 07:40:46;;;;;;;3.83;3.07;;;22.70;30.50;;;;;;4869300;29;20421;-77
2022/07/05 07:43:14;;;;;;;5.37;2.53;;;22.70;31.00;;;;;;4868335;29;20523;-77
2022/07/05 07:45:41;;;;;;;3.60;2.37;;;22.90;30.70;;;;;;4866077;29;20528;-76
2022/07/05 07:48:08;;;;;;;3.30;2.00;;;22.90;31.10;;;;;;4866057;29;20515;-77
2022/07/05 07:50:35;;;;;;;3.17;2.10;;;23.00;30.20;;;;;;4868162;29;20437;-77
2022/07/05 07:53:05;;;;;;;5.40;1.90;;;23.10;30.00;;;;;;4869402;29;20469;-76
2022/07/05 07:55:32;;;;;;;4.63;2.23;;;23.20;28.90;;;;;;4867384;29;20548;-76
2022/07/05 07:58:00;;;;;;;4.27;1.87;;;23.20;29.00;;;;;;4867344;29;21011;-77
2022/07/05 08:00:29;;;;;;;2.93;2.00;;;23.30;28.10;;;;;;4872890;29;20873;-77
2022/07/05 08:02:56;;;;;;;5.00;1.87;;;23.20;28.30;;;;;;4890773;29;20458;-75
2022/07/05 08:05:23;;;;;;;2.97;1.73;;;23.20;27.50;;;;;;4896055;29;20492;-78
2022/07/05 08:07:51;;;;;;;3.43;1.80;;;23.10;27.70;;;;;;4898576;29;21005;-75
2022/07/05 08:10:18;;;;;;;3.43;1.60;;;23.20;27.60;;;;;;4900695;29;20470;-77
2022/07/05 08:12:45;;;;;;;2.50;2.00;;;23.20;27.10;;;;;;4900457;29;20492;-76
2022/07/05 08:15:13;;;;;;;3.97;1.73;;;23.30;26.90;;;;;;4901826;29;20491;-78
2022/07/05 08:21:30;;;;;;;3.23;1.70;;;23.30;26.40;;;;;;4901195;29;20528;-78
2022/07/05 08:23:12;;;;;;;2.27;1.93;;;23.30;26.40;;;;;;4897827;29;20485;-76
2022/07/05 08:25:39;;;;;;;4.50;1.63;;;23.40;26.70;;;;;;4896245;29;20488;-77
2022/07/05 08:28:06;;;;;;;3.77;1.43;;;23.40;26.20;;;;;;4885119;29;20479;-77
2022/07/05 08:30:34;;;;;;;4.20;1.43;;;23.50;26.50;;;;;;4884504;29;20546;-77
2022/07/05 08:33:01;;;;;;;3.43;1.77;;;23.60;26.30;;;;;;4883409;29;20928;-77
2022/07/05 08:35:28;;;;;;;1.60;1.37;;;23.70;26.40;;;;;;4883276;29;20477;-78
2022/07/05 08:37:55;;;;;;;1.93;1.63;;;23.70;26.30;;;;;;4882430;29;20435;-76
2022/07/05 08:40:27;;;;;;;2.80;1.70;;;23.70;26.40;;;;;;4883851;29;20578;-76
2022/07/05 08:42:58;;;;;;;4.83;1.73;;;23.80;26.50;;;;;;4890829;29;20472;-76
2022/07/05 08:45:27;;;;;;;3.67;1.63;;;23.80;26.80;;;;;;4893080;29;20446;-77
2022/07/05 08:47:59;;;;;;;1.60;1.47;;;24.00;27.30;;;;;;4886319;29;20471;-78
2022/07/05 08:50:28;;;;;;;2.37;1.70;;;24.20;26.20;;;;;;4881542;29;20461;-77
2022/07/05 08:52:55;;;;;;;3.87;1.60;;;24.30;26.20;;;;;;4888796;29;20472;-77
2022/07/05 08:55:23;;;;;;;3.70;1.63;;;24.30;25.00;;;;;;4881000;29;20568;-76
2022/07/05 08:57:50;;;;;;;1.83;1.63;;;24.10;25.40;;;;;;4881234;29;20812;-75
2022/07/05 09:00:18;;;;;;;2.30;1.57;;;24.20;25.90;;;;;;4880645;29;20837;-78
2022/07/05 09:02:44;;;;;;;2.73;1.70;;;24.30;24.80;;;;;;4880899;29;20484;-76
2022/07/05 09:05:16;;;;;;;2.77;1.60;;;24.40;24.70;;;;;;4881620;29;20526;-77
2022/07/05 09:07:53;;;;;;;2.90;1.60;;;24.50;23.90;;;;;;4881694;29;20422;-76
2022/07/05 09:10:22;;;;;;;6.60;1.70;;;24.50;25.30;;;;;;4882415;29;20474;-78
2022/07/05 09:12:49;;;;;;;4.67;2.40;;;24.50;25.30;;;;;;4881662;29;20474;-76
2022/07/05 09:15:16;;;;;;;4.43;1.47;;;24.70;25.50;;;;;;4882965;29;20498;-77
2022/07/05 09:17:44;;;;;;;3.93;1.40;;;24.70;25.60;;;;;;4881797;29;20516;-77
2022/07/05 09:20:14;;;;;;;2.87;1.73;;;24.50;25.50;;;;;;4883019;29;20887;-77
2022/07/05 09:22:44;;;;;;;2.50;1.40;;;24.70;25.70;;;;;;4884471;29;20522;-76
2022/07/05 09:25:22;;;;;;;1.60;1.50;;;24.60;25.90;;;;;;4884474;29;20451;-77
2022/07/05 09:27:53;;;;;;;2.97;1.83;;;24.80;25.20;;;;;;4890233;29;20551;-77
2022/07/05 09:30:32;;;;;;;3.60;2.50;;;25.10;25.50;;;;;;4895375;29;20478;-78
2022/07/05 09:33:07;;;;;;;1.60;1.50;;;25.30;25.10;;;;;;4897507;29;20434;-77
2022/07/05 09:35:42;;;;;;;1.83;1.50;;;25.40;24.50;;;;;;4899280;29;20445;-76
2022/07/05 09:38:19;;;;;;;4.73;1.83;;;25.50;24.60;;;;;;4896388;29;20486;-76
2022/07/05 09:40:51;;;;;;;3.90;1.83;;;25.70;24.70;;;;;;4883829;29;20497;-78
2022/07/05 09:43:19;;;;;;;2.37;1.70;;;25.80;24.70;;;;;;4885606;29;20564;-77
2022/07/05 09:45:55;;;;;;;5.57;1.20;;;25.70;23.60;;;;;;4889924;29;20477;-76
2022/07/05 09:48:23;;;;;;;1.20;1.10;;;25.80;20.80;;;;;;4889917;29;20443;-77
2022/07/05 09:50:51;;;;;;;2.53;1.80;;;25.70;22.30;;;;;;4893600;29;20446;-78
2022/07/05 09:53:19;;;;;;;3.77;1.67;;;25.90;21.30;;;;;;4896072;29;20455;-77
2022/07/05 09:56:01;;;;;;;1.30;1.20;;;26.00;22.40;;;;;;4894929;29;20477;-77
2022/07/05 09:58:29;;;;;;;1.50;1.23;;;25.50;21.30;;;;;;4892361;29;20441;-77
2022/07/05 10:00:56;;;;;;;1.23;1.10;;;25.60;20.60;;;;;;4886127;29;20471;-78
2022/07/05 10:03:23;;;;;;;3.13;1.63;;;25.80;19.50;;;;;;4886597;29;20549;-76
2022/07/05 10:05:52;;;;;;;1.53;1.43;;;26.00;20.80;;;;;;4888433;29;20527;-78
2022/07/05 10:08:21;;;;;;;1.20;1.10;;;26.00;19.80;;;;;;4893806;29;20556;-78
2022/07/05 10:10:50;;;;;;;1.57;1.00;;;25.90;20.50;;;;;;4905732;29;20460;-77
2022/07/05 10:13:17;;;;;;;2.50;1.30;;;25.70;20.80;;;;;;4905865;29;20457;-79
2022/07/05 10:15:46;;;;;;;3.17;1.50;;;25.90;21.60;;;;;;4904674;29;20456;-77
2022/07/05 10:18:14;;;;;;;9.43;1.40;;;26.00;21.00;;;;;;4905596;29;20451;-77
2022/07/05 10:20:44;;;;;;;3.57;1.83;;;26.00;21.40;;;;;;4904194;29;20492;-79
2022/07/05 10:23:14;;;;;;;4.73;1.50;;;26.20;20.30;;;;;;4892087;29;20463;-77
2022/07/05 10:25:43;;;;;;;1.63;1.10;;;26.30;20.60;;;;;;4885929;29;20537;-76
2022/07/05 10:28:11;;;;;;;1.57;1.40;;;26.60;20.40;;;;;;4885581;29;20477;-77
2022/07/05 10:30:38;;;;;;;2.50;1.40;;;26.70;20.40;;;;;;4886512;29;20433;-76
2022/07/05 10:33:08;;;;;;;7.77;1.83;;;26.50;20.70;;;;;;4887058;29;20441;-76
2022/07/05 10:35:35;;;;;;;3.27;1.50;;;26.60;20.40;;;;;;4886917;29;20478;-77
2022/07/05 10:38:05;;;;;;;1.60;1.50;;;26.70;19.70;;;;;;4888341;29;20959;-78
2022/07/05 10:40:35;;;;;;;2.83;1.37;;;26.80;20.00;;;;;;4894447;29;20551;-78
2022/07/05 10:43:03;;;;;;;1.60;1.50;;;27.00;20.10;;;;;;4898991;29;20433;-80
2022/07/05 10:45:32;;;;;;;2.13;1.40;;;27.10;20.00;;;;;;4896388;29;21021;-78
2022/07/05 10:48:19;;;;;;;8.07;1.60;;;27.20;19.90;;;;;;4891665;29;20528;-77
2022/07/05 10:50:49;;;;;;;2.53;1.60;;;27.30;19.10;;;;;;4887432;29;20537;-77
2022/07/05 10:53:17;;;;;;;4.10;1.60;;;27.20;19.70;;;;;;4886139;29;20479;-77
2022/07/05 10:55:56;;;;;;;5.00;1.80;;;26.90;20.10;;;;;;4888677;29;20494;-78
2022/07/05 10:58:32;;;;;;;6.37;1.57;;;26.90;20.40;;;;;;4889062;29;20492;-79
2022/07/05 11:01:32;;;;;;;5.53;1.70;;;27.10;20.30;;;;;;4887475;29;20469;-78
2022/07/05 11:04:29;;;;;;;3.07;1.57;;;27.40;19.30;;;;;;4887071;29;20469;-77
2022/07/05 11:06:57;;;;;;;3.23;1.30;;;27.80;17.70;;;;;;4894759;29;20449;-78
2022/07/05 11:09:24;;;;;;;2.17;1.30;;;27.70;18.30;;;;;;4900172;29;20439;-77
2022/07/05 11:12:09;;;;;;;1.53;1.20;;;27.70;17.20;;;;;;4902236;29;20436;-78
2022/07/05 11:14:38;;;;;;;1.10;1.10;;;27.80;17.10;;;;;;4903061;29;20463;-78
2022/07/05 11:17:29;;;;;;;2.43;1.00;;;27.80;16.50;;;;;;4903652;29;20453;-77
2022/07/05 11:20:11;;;;;;;2.10;1.53;;;27.60;16.90;;;;;;4900086;29;20485;-78
2022/07/05 11:22:41;;;;;;;1.07;0.97;;;27.10;17.60;;;;;;4891929;29;20929;-77
2022/07/05 11:25:11;;;;;;;1.43;1.20;;;27.40;17.10;;;;;;4887568;29;20485;-77
2022/07/05 11:28:06;;;;;;;1.70;1.10;;;27.70;17.20;;;;;;4887422;29;20857;-77
2022/07/05 11:30:48;;;;;;;1.60;1.50;;;27.80;17.30;;;;;;4895686;29;20445;-78
2022/07/05 11:33:43;;;;;;;2.70;1.40;;;27.60;17.20;;;;;;4902658;29;20431;-78
2022/07/05 11:36:25;;;;;;;1.53;1.27;;;27.50;17.10;;;;;;4887405;29;20438;-78
2022/07/05 11:39:09;;;;;;;2.67;1.40;;;27.80;17.30;;;;;;4884125;29;20537;-78
2022/07/05 11:41:38;;;;;;;1.47;1.37;;;27.80;17.70;;;;;;4882497;29;20695;-79
2022/07/05 11:44:07;;;;;;;1.87;1.40;;;28.20;17.50;;;;;;4882036;29;20496;-78
2022/07/05 11:46:34;;;;;;;2.27;1.50;;;28.20;17.50;;;;;;4883219;29;20474;-79
2022/07/05 11:49:02;;;;;;;1.50;1.40;;;28.40;17.60;;;;;;4882558;29;20432;-78
2022/07/05 11:51:29;;;;;;;2.30;1.47;;;28.40;17.60;;;;;;4890478;29;20472;-78
2022/07/05 11:53:57;;;;;;;2.63;1.40;;;28.60;17.70;;;;;;4892599;29;20475;-77
2022/07/05 11:56:24;;;;;;;1.50;1.40;;;28.80;16.50;;;;;;4890244;29;20460;-77
2022/07/05 11:58:51;;;;;;;1.43;1.17;;;29.00;16.60;;;;;;4885478;29;20432;-77
2022/07/05 12:01:19;;;;;;;1.20;1.10;;;28.80;16.40;;;;;;4881931;29;20481;-79
2022/07/05 12:03:56;;;;;;;3.00;1.27;;;28.50;16.30;;;;;;4882474;29;20503;-78
2022/07/05 12:06:24;;;;;;;1.30;1.20;;;28.50;17.40;;;;;;4886124;29;20449;-77
2022/07/05 12:09:05;;;;;;;2.70;1.27;;;28.50;17.70;;;;;;4891191;29;20468;-78
2022/07/05 12:14:23;;;;;;;3.70;1.30;;;28.90;17.10;;;;;;4888534;29;20488;-78
2022/07/05 12:17:11;;;;;;;3.47;1.30;;;29.30;16.20;;;;;;4896234;29;20438;-78
2022/07/05 12:19:38;;;;;;;2.67;1.50;;;29.60;16.50;;;;;;4901623;29;20437;-78
2022/07/05 12:22:05;;;;;;;1.50;1.30;;;29.30;16.60;;;;;;4900095;29;20482;-78
2022/07/05 12:24:33;;;;;;;1.40;1.27;;;29.20;16.10;;;;;;4885755;29;20818;-78
2022/07/05 12:26:59;;;;;;;2.97;1.40;;;29.30;16.70;;;;;;4883770;29;20436;-77
2022/07/05 12:29:27;;;;;;;1.90;1.20;;;29.50;16.10;;;;;;4883786;29;20436;-77
2022/07/05 12:32:03;;;;;;;2.77;1.10;;;29.60;16.10;;;;;;4885542;29;20794;-78
2022/07/05 12:34:30;;;;;;;3.60;1.40;;;29.30;16.30;;;;;;4883635;29;20538;-76
2022/07/05 12:36:58;;;;;;;3.50;1.43;;;29.00;16.90;;;;;;4884899;29;21011;-77
2022/07/05 12:39:25;;;;;;;1.63;1.40;;;29.10;17.00;;;;;;4884865;29;20525;-77
2022/07/05 12:41:52;;;;;;;2.30;1.40;;;29.00;18.00;;;;;;4883546;29;20872;-77
2022/07/05 12:44:20;;;;;;;4.00;1.40;;;29.20;17.10;;;;;;4882305;29;20457;-78
2022/07/05 12:46:49;;;;;;;1.60;1.27;;;28.90;17.50;;;;;;4882848;29;20945;-78
2022/07/05 12:49:17;;;;;;;4.97;1.57;;;28.90;17.30;;;;;;4883862;29;20487;-77
2022/07/05 12:51:45;;;;;;;1.40;1.30;;;27.90;17.90;;;;;;4885222;29;20484;-77
2022/07/05 13:00:03;;;;;;;1.53;1.33;;;28.10;17.70;;;;;;4884034;29;20448;-78
2022/07/05 13:02:38;;;;;;;2.10;1.33;;;28.50;17.70;;;;;;4884861;29;20431;-78
2022/07/05 13:05:08;;;;;;;2.17;1.17;;;28.80;16.70;;;;;;4885946;29;20578;-78
2022/07/05 13:07:43;;;;;;;4.07;1.30;;;28.90;16.30;;;;;;4884252;29;20459;-78
2022/07/05 13:10:20;;;;;;;1.43;1.33;;;29.00;16.60;;;;;;4883071;29;20519;-78